createdAt,value
2023-02-17T00:01:33.359Z,0.74
2023-02-17T00:04:01.822Z,0.77
2023-02-17T00:06:32.395Z,0.80
2023-02-17T00:09:00.761Z,0.81
2023-02-17T00:11:28.969Z,0.78
2023-02-17T00:13:57.224Z,0.77
2023-02-17T00:16:27.194Z,0.76
2023-02-17T00:18:57.861Z,0.75
2023-02-17T00:21:28.280Z,0.74
2023-02-17T00:23:57.972Z,0.74
2023-02-17T00:26:25.733Z,0.73
2023-02-17T00:28:53.704Z,0.73
2023-02-17T00:31:23.573Z,0.73
2023-02-17T00:33:54.383Z,0.73
2023-02-17T00:36:22.277Z,0.72
2023-02-17T00:38:50.185Z,0.72
2023-02-17T00:41:19.311Z,0.71
2023-02-17T00:43:48.193Z,0.72
2023-02-17T00:46:17.713Z,0.71
2023-02-17T00:48:46.652Z,0.70
2023-02-17T00:51:15.655Z,0.70
2023-02-17T00:53:43.967Z,0.70
2023-02-17T00:56:12.692Z,0.71
2023-02-17T00:58:41.656Z,0.72
2023-02-17T01:01:11.443Z,0.73
2023-02-17T01:03:41.051Z,0.75
2023-02-17T01:06:22.287Z,0.78
2023-02-17T01:08:50.774Z,0.80
2023-02-17T01:11:20.882Z,0.81
2023-02-17T01:13:49.096Z,0.82
2023-02-17T01:16:19.666Z,0.83
2023-02-17T01:18:48.124Z,0.84
2023-02-17T01:21:20.731Z,0.84
2023-02-17T01:23:50.203Z,0.83
2023-02-17T01:26:21.829Z,0.82
2023-02-17T01:28:50.967Z,0.82
2023-02-17T01:31:20.126Z,0.83
2023-02-17T01:33:48.414Z,0.84
2023-02-17T01:36:19.249Z,0.85
2023-02-17T01:38:47.627Z,0.85
2023-02-17T01:41:17.643Z,0.85
2023-02-17T01:44:10.620Z,0.84
2023-02-17T01:46:40.359Z,0.86
2023-02-17T01:49:38.558Z,0.87
2023-02-17T01:52:26.843Z,0.91
2023-02-17T01:54:59.974Z,0.94
2023-02-17T01:57:32.439Z,0.97
2023-02-17T02:00:00.842Z,0.99
2023-02-17T02:02:31.143Z,1.00
2023-02-17T02:05:00.525Z,1.02
2023-02-17T02:07:40.959Z,1.06
2023-02-17T02:10:10.678Z,1.07
2023-02-17T02:12:40.951Z,1.09
2023-02-17T02:15:19.456Z,1.11
2023-02-17T02:18:14.516Z,1.15
2023-02-17T02:21:19.824Z,1.16
2023-02-17T02:23:58.159Z,1.18
2023-02-17T02:27:04.237Z,1.20
2023-02-17T02:29:56.692Z,1.22
2023-02-17T02:32:30.197Z,1.24
2023-02-17T02:35:08.250Z,1.26
2023-02-17T02:37:43.547Z,1.27
2023-02-17T02:40:13.531Z,1.29
2023-02-17T02:42:42.317Z,1.30
2023-02-17T02:45:11.103Z,1.31
2023-02-17T02:47:45.184Z,1.33
2023-02-17T02:50:25.171Z,1.36
2023-02-17T02:53:04.768Z,1.38
2023-02-17T02:55:48.970Z,1.40
2023-02-17T02:58:43.105Z,1.41
2023-02-17T03:01:14.314Z,1.45
2023-02-17T03:04:00.919Z,1.46
2023-02-17T03:06:45.527Z,1.48
2023-02-17T03:09:21.019Z,1.50
2023-02-17T03:11:50.445Z,1.51
2023-02-17T03:14:20.975Z,1.52
2023-02-17T03:16:50.766Z,1.51
2023-02-17T03:19:22.584Z,1.51
2023-02-17T03:21:57.284Z,1.50
2023-02-17T03:24:25.624Z,1.49
2023-02-17T03:26:53.396Z,1.49
2023-02-17T03:29:21.229Z,1.48
2023-02-17T03:31:49.271Z,1.48
2023-02-17T03:34:17.518Z,1.48
2023-02-17T03:36:45.825Z,1.49
2023-02-17T03:39:13.600Z,1.49
2023-02-17T03:41:41.428Z,1.50
2023-02-17T03:44:09.254Z,1.50
2023-02-17T03:46:40.657Z,1.52
2023-02-17T03:49:08.868Z,1.54
2023-02-17T03:51:37.218Z,1.55
2023-02-17T03:54:05.192Z,1.57
2023-02-17T03:56:33.155Z,1.58
2023-02-17T03:59:00.978Z,1.57
2023-02-17T04:01:29.303Z,1.58
2023-02-17T04:03:57.791Z,1.59
2023-02-17T04:06:25.725Z,1.60
2023-02-17T04:08:53.598Z,1.59
2023-02-17T04:11:21.364Z,1.58
2023-02-17T04:13:49.155Z,1.58
2023-02-17T04:16:18.326Z,1.56
2023-02-17T04:18:46.878Z,1.53
2023-02-17T04:21:14.784Z,1.51
2023-02-17T04:23:42.633Z,1.48
2023-02-17T04:26:10.389Z,1.46
2023-02-17T04:28:40.920Z,1.44
2023-02-17T04:31:09.420Z,1.44
2023-02-17T04:33:38.073Z,1.41
2023-02-17T04:36:06.507Z,1.40
2023-02-17T04:38:34.916Z,1.38
2023-02-17T04:41:03.308Z,1.38
2023-02-17T04:43:31.631Z,1.39
2023-02-17T04:45:59.453Z,1.41
2023-02-17T04:48:27.238Z,1.42
2023-02-17T04:50:55.018Z,1.45
2023-02-17T04:53:23.289Z,1.47
2023-02-17T04:55:52.960Z,1.48
2023-02-17T04:58:21.261Z,1.50
2023-02-17T05:00:50.436Z,1.52
2023-02-17T05:03:19.485Z,1.55
2023-02-17T05:05:47.396Z,1.56
2023-02-17T05:08:15.256Z,1.57
2023-02-17T05:10:43.068Z,1.58
2023-02-17T05:13:10.852Z,1.59
2023-02-17T05:15:38.754Z,1.61
2023-02-17T05:18:06.590Z,1.64
2023-02-17T05:20:34.373Z,1.67
2023-02-17T05:23:02.143Z,1.70
2023-02-17T05:25:29.948Z,1.73
2023-02-17T05:27:57.730Z,1.74
2023-02-17T05:30:25.817Z,1.75
2023-02-17T05:32:53.863Z,1.75
2023-02-17T05:35:21.914Z,1.76
2023-02-17T05:37:49.702Z,1.77
2023-02-17T05:40:17.563Z,1.77
2023-02-17T05:42:45.399Z,1.76
2023-02-17T05:45:13.275Z,1.76
2023-02-17T05:47:41.026Z,1.75
2023-02-17T05:50:09.028Z,1.74
2023-02-17T05:52:36.847Z,1.73
2023-02-17T05:55:05.115Z,1.71
2023-02-17T05:57:33.159Z,1.71
2023-02-17T06:00:00.937Z,1.69
2023-02-17T06:02:28.847Z,1.68
2023-02-17T06:04:56.767Z,1.68
2023-02-17T06:07:24.748Z,1.69
2023-02-17T06:09:52.500Z,1.70
2023-02-17T06:12:20.282Z,1.74
2023-02-17T06:14:48.602Z,1.77
2023-02-17T06:17:17.072Z,1.81
2023-02-17T06:19:44.842Z,1.84
2023-02-17T06:22:12.585Z,1.88
2023-02-17T06:24:40.322Z,1.93
2023-02-17T06:27:08.096Z,1.99
2023-02-17T06:29:36.393Z,2.04
2023-02-17T06:32:05.040Z,2.12
2023-02-17T06:34:32.847Z,2.21
2023-02-17T06:37:00.649Z,2.30
2023-02-17T06:39:28.405Z,2.39
2023-02-17T06:41:56.180Z,2.47
2023-02-17T06:44:24.428Z,2.53
2023-02-17T06:46:52.852Z,2.60
2023-02-17T06:49:20.620Z,2.65
2023-02-17T06:51:48.433Z,2.71
2023-02-17T06:54:16.712Z,2.76
2023-02-17T06:56:44.492Z,2.80
2023-02-17T06:59:13.010Z,2.84
2023-02-17T07:01:41.274Z,2.89
2023-02-17T07:04:09.068Z,2.92
2023-02-17T07:06:36.893Z,2.97
2023-02-17T07:09:04.682Z,3.01
2023-02-17T07:11:33.014Z,3.07
2023-02-17T07:14:01.520Z,3.13
2023-02-17T07:16:29.989Z,3.18
2023-02-17T07:18:57.783Z,3.24
2023-02-17T07:21:25.622Z,3.29
2023-02-17T07:23:53.423Z,3.38
2023-02-17T07:26:21.171Z,3.48
2023-02-17T07:28:49.521Z,3.56
2023-02-17T07:31:18.539Z,3.60
2023-02-17T07:33:48.232Z,3.64
2023-02-17T07:36:17.757Z,3.67
2023-02-17T07:38:45.668Z,3.66
2023-02-17T07:41:16.457Z,3.66
2023-02-17T07:43:45.827Z,3.65
2023-02-17T07:46:14.824Z,3.65
2023-02-17T07:48:42.958Z,3.65
2023-02-17T07:51:16.949Z,3.68
2023-02-17T07:53:44.917Z,3.72
2023-02-17T07:56:15.493Z,3.77
2023-02-17T07:58:45.764Z,3.82
2023-02-17T08:01:21.041Z,3.89
2023-02-17T08:03:49.658Z,3.96
2023-02-17T08:06:23.598Z,3.98
2023-02-17T08:09:11.689Z,4.00
2023-02-17T08:12:06.433Z,3.96
2023-02-17T08:14:34.308Z,3.90
2023-02-17T08:17:02.699Z,3.85
2023-02-17T08:19:46.544Z,3.82
2023-02-17T08:22:17.647Z,3.81
2023-02-17T08:24:45.611Z,3.81
2023-02-17T08:27:17.352Z,3.86
2023-02-17T08:29:46.597Z,3.93
2023-02-17T08:32:16.626Z,3.99
2023-02-17T08:34:44.644Z,4.09
2023-02-17T08:37:12.933Z,4.18
2023-02-17T08:39:40.697Z,4.25
2023-02-17T08:42:08.569Z,4.28
2023-02-17T08:44:37.794Z,4.28
2023-02-17T08:47:07.243Z,4.31
2023-02-17T08:49:36.013Z,4.35
2023-02-17T08:52:04.204Z,4.39
2023-02-17T08:54:32.720Z,4.41
2023-02-17T08:57:00.597Z,4.41
2023-02-17T08:59:28.942Z,4.43
2023-02-17T09:01:57.875Z,4.51
2023-02-17T09:04:26.143Z,4.57
2023-02-17T09:06:58.546Z,4.62
2023-02-17T09:09:27.476Z,4.64
2023-02-17T09:11:57.736Z,4.65
2023-02-17T09:14:25.995Z,4.68
2023-02-17T09:16:57.539Z,4.73
2023-02-17T09:19:31.581Z,4.77
2023-02-17T09:21:59.398Z,4.83
2023-02-17T09:24:27.228Z,4.91
2023-02-17T09:26:55.198Z,4.99
2023-02-17T09:29:23.100Z,5.06
2023-02-17T09:31:51.657Z,5.18
2023-02-17T09:34:20.021Z,5.27
2023-02-17T09:36:48.169Z,5.37
2023-02-17T09:39:16.687Z,5.43
2023-02-17T09:41:55.418Z,5.47
2023-02-17T09:44:26.811Z,5.55
2023-02-17T09:47:03.140Z,5.63
2023-02-17T09:49:43.348Z,5.66
2023-02-17T09:52:16.886Z,5.69
2023-02-17T09:55:04.290Z,5.71
2023-02-17T09:58:02.414Z,5.73
2023-02-17T10:00:39.739Z,5.77
2023-02-17T10:03:31.302Z,5.81
2023-02-17T10:06:32.902Z,5.87
2023-02-17T10:09:14.038Z,6.02
2023-02-17T10:12:00.899Z,6.23
2023-02-17T10:14:43.915Z,6.39
2023-02-17T10:17:47.598Z,6.51
2023-02-17T10:20:18.151Z,6.66
2023-02-17T10:22:51.377Z,6.78
2023-02-17T10:25:33.834Z,6.93
2023-02-17T10:28:22.094Z,7.09
2023-02-17T10:31:04.271Z,7.19
2023-02-17T10:33:48.207Z,7.21
2023-02-17T10:36:18.973Z,7.23
2023-02-17T10:38:53.166Z,7.23
2023-02-17T10:41:27.208Z,7.26
2023-02-17T10:43:55.254Z,7.22
2023-02-17T10:46:31.673Z,7.18
2023-02-17T10:49:00.140Z,7.25
2023-02-17T10:51:31.215Z,7.36
2023-02-17T10:54:19.746Z,7.41
2023-02-17T10:56:52.304Z,7.53
2023-02-17T10:59:41.715Z,7.64
2023-02-17T11:02:17.812Z,7.75
2023-02-17T11:04:49.793Z,7.84
2023-02-17T11:07:22.522Z,7.88
2023-02-17T11:09:53.627Z,7.90
2023-02-17T11:12:26.878Z,7.90
2023-02-17T11:14:56.484Z,7.80
2023-02-17T11:17:45.231Z,7.75
2023-02-17T11:20:13.288Z,7.73
2023-02-17T11:22:47.639Z,7.70
2023-02-17T11:25:37.871Z,7.69
2023-02-17T11:28:11.321Z,7.76
2023-02-17T11:30:41.723Z,7.85
2023-02-17T11:33:15.523Z,7.92
2023-02-17T11:35:54.545Z,7.92
2023-02-17T11:38:25.937Z,7.89
2023-02-17T11:41:07.018Z,7.84
2023-02-17T11:43:36.206Z,7.78
2023-02-17T11:46:36.898Z,7.72
2023-02-17T11:49:35.192Z,7.69
2023-02-17T11:52:23.990Z,7.65
2023-02-17T11:55:19.808Z,7.63
2023-02-17T11:57:59.429Z,7.63
2023-02-17T12:00:54.492Z,7.58
2023-02-17T12:03:28.479Z,7.44
2023-02-17T12:06:13.904Z,7.38
2023-02-17T12:08:51.316Z,7.30
2023-02-17T12:11:32.292Z,7.21
2023-02-17T12:14:06.273Z,7.14
2023-02-17T12:16:52.938Z,7.10
2023-02-17T12:19:30.385Z,7.03
2023-02-17T12:22:22.603Z,6.92
2023-02-17T12:25:04.397Z,6.79
2023-02-17T12:28:10.920Z,6.67
2023-02-17T12:30:39.623Z,6.53
2023-02-17T12:33:35.146Z,6.45
2023-02-17T12:36:08.572Z,6.35
2023-02-17T12:38:49.854Z,6.35
2023-02-17T12:41:27.574Z,6.31
2023-02-17T12:44:00.358Z,6.30
2023-02-17T12:46:43.014Z,6.31
2023-02-17T12:49:20.250Z,6.25
2023-02-17T12:51:57.999Z,6.17
2023-02-17T12:54:38.642Z,6.14
2023-02-17T12:57:06.369Z,6.14
2023-02-17T12:59:40.359Z,6.13
2023-02-17T13:02:17.300Z,6.18
2023-02-17T13:04:49.353Z,6.25
2023-02-17T13:07:38.801Z,6.31
2023-02-17T13:10:08.101Z,6.38
2023-02-17T13:12:40.738Z,6.46
2023-02-17T13:15:46.049Z,6.48
2023-02-17T13:18:35.197Z,6.40
2023-02-17T13:21:33.704Z,6.38
2023-02-17T13:24:30.688Z,6.34
2023-02-17T13:27:10.637Z,6.25
2023-02-17T13:29:39.280Z,6.16
2023-02-17T13:32:12.364Z,6.11
2023-02-17T13:34:43.429Z,6.05
2023-02-17T13:37:33.368Z,5.98
2023-02-17T13:40:23.422Z,5.94
2023-02-17T13:42:54.564Z,5.86
2023-02-17T13:45:30.925Z,5.75
2023-02-17T13:48:01.439Z,5.67
2023-02-17T13:50:29.352Z,5.64
2023-02-17T13:53:00.405Z,5.67
2023-02-17T13:55:28.442Z,5.66
2023-02-17T13:57:59.367Z,5.65
2023-02-17T14:00:28.949Z,5.64
2023-02-17T14:03:19.223Z,5.63
2023-02-17T14:05:49.412Z,5.64
2023-02-17T14:08:23.749Z,5.61
2023-02-17T14:10:52.282Z,5.60
2023-02-17T14:13:20.508Z,5.60
2023-02-17T14:16:00.266Z,5.58
2023-02-17T14:18:36.807Z,5.54
2023-02-17T14:21:11.826Z,5.53
2023-02-17T14:23:49.175Z,5.50
2023-02-17T14:26:28.988Z,5.47
2023-02-17T14:29:05.137Z,5.48
2023-02-17T14:31:42.212Z,5.50
2023-02-17T14:34:37.954Z,5.54
2023-02-17T14:37:08.780Z,5.52
2023-02-17T14:39:37.209Z,5.49
2023-02-17T14:42:05.818Z,5.45
2023-02-17T14:44:34.270Z,5.41
2023-02-17T14:47:02.610Z,5.35
2023-02-17T14:49:30.474Z,5.28
2023-02-17T14:51:58.697Z,5.22
2023-02-17T14:54:30.373Z,5.18
2023-02-17T14:57:12.593Z,5.14
2023-02-17T14:59:40.904Z,5.10
2023-02-17T15:02:18.290Z,5.06
2023-02-17T15:04:47.388Z,5.02
2023-02-17T15:07:18.276Z,4.98
2023-02-17T15:09:48.536Z,4.95
2023-02-17T15:12:19.752Z,4.94
2023-02-17T15:14:48.507Z,4.89
2023-02-17T15:17:16.566Z,4.85
2023-02-17T15:19:44.996Z,4.82
2023-02-17T15:22:14.420Z,4.78
2023-02-17T15:24:42.758Z,4.73
2023-02-17T15:27:14.749Z,4.70
2023-02-17T15:29:43.383Z,4.66
2023-02-17T15:32:20.177Z,4.64
2023-02-17T15:34:48.534Z,4.59
2023-02-17T15:37:16.258Z,4.55
2023-02-17T15:39:44.967Z,4.51
2023-02-17T15:42:14.787Z,4.47
2023-02-17T15:44:47.757Z,4.46
2023-02-17T15:47:20.687Z,4.44
2023-02-17T15:49:48.519Z,4.42
2023-02-17T15:52:17.061Z,4.40
2023-02-17T15:54:45.503Z,4.37
2023-02-17T15:57:28.751Z,4.36
2023-02-17T16:00:00.618Z,4.34
2023-02-17T16:02:29.386Z,4.33
2023-02-17T16:04:57.336Z,4.30
2023-02-17T16:07:26.538Z,4.29
2023-02-17T16:09:56.000Z,4.30
2023-02-17T16:12:27.423Z,4.29
2023-02-17T16:14:56.910Z,4.28
2023-02-17T16:17:26.581Z,4.28
2023-02-17T16:19:56.592Z,4.27
2023-02-17T16:22:24.460Z,4.28
2023-02-17T16:24:52.342Z,4.29
2023-02-17T16:27:20.512Z,4.28
2023-02-17T16:29:49.215Z,4.27
2023-02-17T16:32:19.916Z,4.25
2023-02-17T16:34:51.204Z,4.23
2023-02-17T16:37:19.567Z,4.21
2023-02-17T16:39:47.518Z,4.20
